Wichelen, Belgium
Current Conditions -  °F | °C
As of 7:20 AM on Thursday 23 Oct 2014 (Local Time) from EBAW Reporting Station
Broken Clouds Broken Clouds  
Wind Chill: 10°   Ceiling: 2900
Heat Index: 10°   Visibility: 6mi
Dew Point:   Wind: 9mph
Humidity: 82%   Direction: 210°SSW
Pressure: 30.18"   Gusts: NA
Location:  51.01°N, 3.98°E
Report Text: EBAW 230520Z 21008KT 9999 FEW024 BKN029 10/07 Q1022 NOSIG
Loading
Personal Weather Stations






























Interactive Weather Map
Tropical Storm Tracking
New forecast layout! Learn more

10-Day Weather Forecast

Advertisements
Track Severe Weather on mobile